Time,TemperatureF,DewpointF,PressureIn,WindDirection,WindDirectionDegrees,WindSpeedMPH,WindSpeedGustMPH,Humidity,HourlyPrecipIn,Conditions,Clouds,dailyrainin,SoftwareType,DateUTC
2013-02-10 00:00:00,35.6,22.3,30.17,SE,145,0.0,1.0,58,0.00,,,0.00,Wunderground v.1.15,2013-02-10 05:00:00,
2013-02-10 00:01:00,35.6,22.3,30.17,SE,145,0.0,1.0,58,0.00,,,0.00,Wunderground v.1.15,2013-02-10 05:01:00,
2013-02-10 00:02:00,35.6,22.3,30.17,SE,145,0.0,1.0,58,0.00,,,0.00,Wunderground v.1.15,2013-02-10 05:02:00,
2013-02-10 00:05:00,35.6,22.3,30.17,SE,137,0.0,2.0,58,0.00,,,0.00,Wunderground v.1.15,2013-02-10 05:05:00,
2013-02-10 00:11:00,35.6,22.7,30.17,SE,128,0.0,0.0,59,0.00,,,0.00,Wunderground v.1.15,2013-02-10 05:11:00,
2013-02-10 00:16:00,35.6,22.7,30.16,ESE,103,0.0,2.0,59,0.00,,,0.00,Wunderground v.1.15,2013-02-10 05:16:00,
2013-02-10 00:22:00,35.6,22.7,30.16,ESE,123,0.0,0.0,59,0.00,,,0.00,Wunderground v.1.15,2013-02-10 05:22:00,
2013-02-10 00:27:00,35.6,22.7,30.16,SSE,166,0.0,2.0,59,0.00,,,0.00,Wunderground v.1.15,2013-02-10 05:27:00,
2013-02-10 00:33:00,35.6,23.1,30.16,SSE,166,0.0,0.0,60,0.00,,,0.00,Wunderground v.1.15,2013-02-10 05:33:00,
2013-02-10 00:38:00,35.6,23.1,30.16,SSE,163,0.0,0.0,60,0.00,,,0.00,Wunderground v.1.15,2013-02-10 05:38:00,
2013-02-10 00:44:00,35.6,23.1,30.16,SSE,163,0.0,1.0,60,0.00,,,0.00,Wunderground v.1.15,2013-02-10 05:44:00,
2013-02-10 00:49:00,35.6,23.5,30.15,SSE,163,0.0,1.0,61,0.00,,,0.00,Wunderground v.1.15,2013-02-10 05:49:00,
2013-02-10 00:54:00,35.7,23.6,30.15,SSE,163,0.0,0.0,61,0.00,,,0.00,Wunderground v.1.15,2013-02-10 05:54:00,
2013-02-10 01:00:00,35.6,23.5,30.15,SE,145,0.0,0.0,61,0.00,,,0.00,Wunderground v.1.15,2013-02-10 06:00:00,
2013-02-10 01:05:00,35.6,23.5,30.15,SE,145,0.0,1.0,61,0.00,,,0.00,Wunderground v.1.15,2013-02-10 06:05:00,
2013-02-10 01:11:00,35.7,23.2,30.15,SSE,150,0.0,0.0,60,0.00,,,0.00,Wunderground v.1.15,2013-02-10 06:11:00,
2013-02-10 01:17:00,35.8,23.3,30.15,SSE,152,0.0,0.0,60,0.00,,,0.00,Wunderground v.1.15,2013-02-10 06:17:00,
2013-02-10 01:22:00,35.9,23.4,30.15,SSE,152,0.0,0.0,60,0.00,,,0.00,Wunderground v.1.15,2013-02-10 06:22:00,
2013-02-10 01:28:00,36.0,23.0,30.14,SSE,152,0.0,0.0,59,0.00,,,0.00,Wunderground v.1.15,2013-02-10 06:28:00,
2013-02-10 01:34:00,36.0,23.0,30.14,SSE,152,0.0,0.0,59,0.00,,,0.00,Wunderground v.1.15,2013-02-10 06:34:00,
2013-02-10 01:39:00,36.1,23.1,30.14,SSE,152,0.0,0.0,59,0.00,,,0.00,Wunderground v.1.15,2013-02-10 06:39:00,
2013-02-10 01:45:00,36.0,23.4,30.14,SSE,152,0.0,0.0,60,0.00,,,0.00,Wunderground v.1.15,2013-02-10 06:45:00,
2013-02-10 01:50:00,36.0,23.4,30.14,SSE,152,0.0,0.0,60,0.00,,,0.00,Wunderground v.1.15,2013-02-10 06:50:00,
2013-02-10 01:56:00,36.1,23.5,30.14,SSE,152,0.0,0.0,60,0.00,,,0.00,Wunderground v.1.15,2013-02-10 06:56:00,
2013-02-10 02:01:00,36.1,23.5,30.14,SSE,152,0.0,0.0,60,0.00,,,0.00,Wunderground v.1.15,2013-02-10 07:01:00,
2013-02-10 02:07:00,36.0,23.8,30.14,SSE,152,0.0,0.0,61,0.00,,,0.00,Wunderground v.1.15,2013-02-10 07:07:00,
2013-02-10 02:13:00,36.1,23.5,30.14,SSE,152,0.0,0.0,60,0.00,,,0.00,Wunderground v.1.15,2013-02-10 07:13:00,
2013-02-10 02:19:00,36.1,23.5,30.14,SSE,152,0.0,0.0,60,0.00,,,0.00,Wunderground v.1.15,2013-02-10 07:19:00,
2013-02-10 02:24:00,36.1,23.9,30.14,SSE,152,0.0,0.0,61,0.00,,,0.00,Wunderground v.1.15,2013-02-10 07:24:00,
2013-02-10 02:30:00,36.1,23.9,30.14,SSE,152,0.0,0.0,61,0.00,,,0.00,Wunderground v.1.15,2013-02-10 07:30:00,
2013-02-10 02:35:00,36.0,24.2,30.14,SSE,152,0.0,0.0,62,0.00,,,0.00,Wunderground v.1.15,2013-02-10 07:35:00,
2013-02-10 02:41:00,35.9,24.1,30.14,SSE,152,0.0,0.0,62,0.00,,,0.00,Wunderground v.1.15,2013-02-10 07:41:00,
2013-02-10 02:46:00,35.8,24.4,30.14,SSE,152,0.0,0.0,63,0.00,,,0.00,Wunderground v.1.15,2013-02-10 07:46:00,
2013-02-10 02:51:00,35.5,25.3,30.14,SSE,152,0.0,0.0,66,0.00,,,0.00,Wunderground v.1.15,2013-02-10 07:51:00,
2013-02-10 02:57:00,34.9,25.0,30.14,SSE,152,0.0,0.0,67,0.00,,,0.00,Wunderground v.1.15,2013-02-10 07:57:00,
2013-02-10 03:02:00,34.8,25.7,30.15,SSE,152,0.0,0.0,69,0.00,,,0.00,Wunderground v.1.15,2013-02-10 08:02:00,
2013-02-10 03:08:00,34.7,24.5,30.14,SSE,152,0.0,0.0,66,0.00,,,0.00,Wunderground v.1.15,2013-02-10 08:08:00,
2013-02-10 03:13:00,35.2,24.6,30.14,SSE,152,0.0,0.0,65,0.00,,,0.00,Wunderground v.1.15,2013-02-10 08:13:00,
2013-02-10 03:19:00,35.6,24.2,30.14,SSE,152,0.0,0.0,63,0.00,,,0.00,Wunderground v.1.15,2013-02-10 08:19:00,
2013-02-10 03:25:00,35.9,24.1,30.14,SSE,152,0.0,0.0,62,0.00,,,0.00,Wunderground v.1.15,2013-02-10 08:25:00,
2013-02-10 03:30:00,35.9,24.5,30.14,SSE,152,0.0,0.0,63,0.00,,,0.00,Wunderground v.1.15,2013-02-10 08:30:00,
2013-02-10 03:36:00,35.8,24.4,30.14,SSE,152,0.0,0.0,63,0.00,,,0.00,Wunderground v.1.15,2013-02-10 08:36:00,
2013-02-10 03:41:00,35.8,24.4,30.13,SSE,152,0.0,0.0,63,0.00,,,0.00,Wunderground v.1.15,2013-02-10 08:41:00,
2013-02-10 03:47:00,35.8,24.8,30.12,SSE,152,0.0,0.0,64,0.00,,,0.00,Wunderground v.1.15,2013-02-10 08:47:00,
2013-02-10 03:52:00,36.1,24.3,30.11,SSE,152,0.0,0.0,62,0.00,,,0.00,Wunderground v.1.15,2013-02-10 08:52:00,
2013-02-10 03:58:00,36.2,26.3,30.12,SSE,152,0.0,0.0,67,0.00,,,0.00,Wunderground v.1.15,2013-02-10 08:58:00,
2013-02-10 04:04:00,36.0,26.5,30.11,SSE,152,0.0,0.0,68,0.00,,,0.00,Wunderground v.1.15,2013-02-10 09:04:00,
2013-02-10 04:10:00,35.8,26.3,30.11,SSE,152,0.0,0.0,68,0.00,,,0.00,Wunderground v.1.15,2013-02-10 09:10:00,
2013-02-10 04:16:00,35.8,25.9,30.11,SSE,152,0.0,0.0,67,0.00,,,0.00,Wunderground v.1.15,2013-02-10 09:16:00,
2013-02-10 04:21:00,35.9,26.4,30.11,SSE,152,0.0,0.0,68,0.00,,,0.00,Wunderground v.1.15,2013-02-10 09:21:00,
2013-02-10 04:27:00,35.7,26.2,30.11,SSE,152,0.0,0.0,68,0.00,,,0.00,Wunderground v.1.15,2013-02-10 09:27:00,
2013-02-10 04:32:00,35.7,26.5,30.11,SSE,152,0.0,0.0,69,0.00,,,0.00,Wunderground v.1.15,2013-02-10 09:32:00,
2013-02-10 04:37:00,35.6,26.8,30.12,SSE,152,0.0,0.0,70,0.00,,,0.00,Wunderground v.1.15,2013-02-10 09:37:00,
2013-02-10 04:43:00,35.2,28.1,30.11,SSE,152,0.0,0.0,75,0.00,,,0.00,Wunderground v.1.15,2013-02-10 09:43:00,
2013-02-10 04:49:00,35.1,27.3,30.11,SSE,152,0.0,0.0,73,0.00,,,0.00,Wunderground v.1.15,2013-02-10 09:49:00,
2013-02-10 04:54:00,35.1,27.6,30.11,SSE,152,0.0,0.0,74,0.00,,,0.00,Wunderground v.1.15,2013-02-10 09:54:00,
2013-02-10 05:00:00,35.1,27.0,30.11,SSE,152,0.0,0.0,72,0.00,,,0.00,Wunderground v.1.15,2013-02-10 10:00:00,
2013-02-10 05:05:00,35.0,28.5,30.11,SSE,152,0.0,0.0,77,0.00,,,0.00,Wunderground v.1.15,2013-02-10 10:05:00,
2013-02-10 05:11:00,34.8,27.7,30.11,SSE,152,0.0,0.0,75,0.00,,,0.00,Wunderground v.1.15,2013-02-10 10:11:00,
2013-02-10 05:17:00,34.8,27.7,30.10,SSE,152,0.0,0.0,75,0.00,,,0.00,Wunderground v.1.15,2013-02-10 10:17:00,
2013-02-10 05:23:00,35.7,27.2,30.10,SSE,152,0.0,0.0,71,0.00,,,0.00,Wunderground v.1.15,2013-02-10 10:23:00,
2013-02-10 05:28:00,36.4,26.5,30.10,SSE,152,0.0,0.0,67,0.00,,,0.00,Wunderground v.1.15,2013-02-10 10:28:00,
2013-02-10 05:34:00,36.7,26.0,30.10,SE,140,0.0,1.0,65,0.00,,,0.00,Wunderground v.1.15,2013-02-10 10:34:00,
2013-02-10 05:39:00,36.9,25.9,30.09,SE,140,1.0,1.0,64,0.00,,,0.00,Wunderground v.1.15,2013-02-10 10:39:00,
2013-02-10 05:45:00,37.1,25.7,30.09,SE,140,0.0,1.0,63,0.00,,,0.00,Wunderground v.1.15,2013-02-10 10:45:00,
2013-02-10 05:51:00,37.0,25.6,30.09,SE,140,0.0,0.0,63,0.00,,,0.00,Wunderground v.1.15,2013-02-10 10:51:00,
2013-02-10 05:56:00,37.0,25.2,30.09,SE,140,0.0,1.0,62,0.00,,,0.00,Wunderground v.1.15,2013-02-10 10:56:00,
2013-02-10 06:02:00,37.0,25.2,30.09,SE,140,0.0,0.0,62,0.00,,,0.00,Wunderground v.1.15,2013-02-10 11:02:00,
2013-02-10 06:07:00,37.0,24.8,30.09,SE,140,0.0,0.0,61,0.00,,,0.00,Wunderground v.1.15,2013-02-10 11:07:00,
2013-02-10 06:12:00,37.1,25.3,30.09,SE,140,0.0,0.0,62,0.00,,,0.00,Wunderground v.1.15,2013-02-10 11:12:00,
2013-02-10 06:18:00,37.1,24.9,30.09,SE,140,0.0,0.0,61,0.00,,,0.00,Wunderground v.1.15,2013-02-10 11:18:00,
2013-02-10 06:23:00,37.1,25.3,30.10,SE,140,0.0,0.0,62,0.00,,,0.00,Wunderground v.1.15,2013-02-10 11:23:00,
2013-02-10 06:29:00,37.1,25.3,30.10,SSE,165,0.0,0.0,62,0.00,,,0.00,Wunderground v.1.15,2013-02-10 11:29:00,
2013-02-10 06:34:00,37.1,25.3,30.10,SSE,165,0.0,0.0,62,0.00,,,0.00,Wunderground v.1.15,2013-02-10 11:34:00,
2013-02-10 06:39:00,37.1,25.3,30.09,SSE,164,0.0,0.0,62,0.00,,,0.00,Wunderground v.1.15,2013-02-10 11:39:00,
2013-02-10 06:45:00,37.0,25.2,30.10,South,179,0.0,0.0,62,0.00,,,0.00,Wunderground v.1.15,2013-02-10 11:45:00,
2013-02-10 06:51:00,37.0,25.6,30.10,SSW,208,0.0,0.0,63,0.00,,,0.00,Wunderground v.1.15,2013-02-10 11:51:00,
2013-02-10 06:56:00,36.9,25.5,30.09,SSW,207,0.0,1.0,63,0.00,,,0.00,Wunderground v.1.15,2013-02-10 11:56:00,
2013-02-10 07:02:00,37.0,25.6,30.09,South,169,0.0,0.0,63,0.00,,,0.00,Wunderground v.1.15,2013-02-10 12:02:00,
2013-02-10 07:07:00,37.1,25.7,30.09,South,169,0.0,0.0,63,0.00,,,0.00,Wunderground v.1.15,2013-02-10 12:07:00,
2013-02-10 07:13:00,37.2,25.8,30.08,South,169,0.0,0.0,63,0.00,,,0.00,Wunderground v.1.15,2013-02-10 12:13:00,
2013-02-10 07:19:00,37.2,26.1,30.08,SSE,160,0.0,1.0,64,0.00,,,0.00,Wunderground v.1.15,2013-02-10 12:19:00,
2013-02-10 07:24:00,37.2,26.1,30.08,SE,128,0.0,2.0,64,0.00,,,0.00,Wunderground v.1.15,2013-02-10 12:24:00,
2013-02-10 07:30:00,37.3,26.2,30.08,South,181,1.0,2.0,64,0.00,,,0.00,Wunderground v.1.15,2013-02-10 12:30:00,
2013-02-10 07:35:00,37.4,26.3,30.09,South,188,0.0,3.0,64,0.00,,,0.00,Wunderground v.1.15,2013-02-10 12:35:00,
2013-02-10 07:41:00,37.4,26.7,30.09,South,188,0.0,1.0,65,0.00,,,0.00,Wunderground v.1.15,2013-02-10 12:41:00,
2013-02-10 07:47:00,37.5,26.8,30.08,South,187,0.0,1.0,65,0.00,,,0.00,Wunderground v.1.15,2013-02-10 12:47:00,
2013-02-10 07:52:00,37.5,27.2,30.07,SW,231,0.0,0.0,66,0.00,,,0.00,Wunderground v.1.15,2013-02-10 12:52:00,
2013-02-10 07:58:00,37.5,26.8,30.07,SSE,163,0.0,2.0,65,0.00,,,0.00,Wunderground v.1.15,2013-02-10 12:58:00,
2013-02-10 08:04:00,37.9,27.2,30.07,SSE,165,1.0,3.0,65,0.00,,,0.00,Wunderground v.1.15,2013-02-10 13:04:00,
2013-02-10 08:10:00,38.2,27.1,30.07,South,180,1.0,1.0,64,0.00,,,0.00,Wunderground v.1.15,2013-02-10 13:10:00,
2013-02-10 08:15:00,38.3,27.2,30.06,South,180,0.0,1.0,64,0.00,,,0.00,Wunderground v.1.15,2013-02-10 13:15:00,
2013-02-10 08:21:00,38.6,27.5,30.06,SSW,192,0.0,2.0,64,0.00,,,0.00,Wunderground v.1.15,2013-02-10 13:21:00,
2013-02-10 08:27:00,38.8,27.7,30.06,SSE,165,1.0,3.0,64,0.00,,,0.00,Wunderground v.1.15,2013-02-10 13:27:00,
2013-02-10 08:32:00,38.9,28.1,30.06,SSW,196,1.0,2.0,65,0.00,,,0.00,Wunderground v.1.15,2013-02-10 13:32:00,
2013-02-10 08:37:00,39.1,28.3,30.06,SSE,159,1.0,3.0,65,0.00,,,0.00,Wunderground v.1.15,2013-02-10 13:37:00,
2013-02-10 08:43:00,39.6,28.8,30.06,South,184,1.0,1.0,65,0.00,,,0.00,Wunderground v.1.15,2013-02-10 13:43:00,
2013-02-10 08:49:00,39.7,29.3,30.06,SSE,151,1.0,4.0,66,0.00,,,0.00,Wunderground v.1.15,2013-02-10 13:49:00,
2013-02-10 08:54:00,39.8,30.1,30.06,SSW,202,1.0,3.0,68,0.00,,,0.00,Wunderground v.1.15,2013-02-10 13:54:00,
2013-02-10 09:00:00,39.7,30.7,30.06,South,188,1.0,1.0,70,0.00,,,0.00,Wunderground v.1.15,2013-02-10 14:00:00,
2013-02-10 09:05:00,39.7,30.7,30.06,SSW,194,1.0,2.0,70,0.00,,,0.00,Wunderground v.1.15,2013-02-10 14:05:00,
2013-02-10 09:11:00,39.8,31.8,30.06,South,172,1.0,1.0,73,0.00,,,0.00,Wunderground v.1.15,2013-02-10 14:11:00,
2013-02-10 09:17:00,39.9,31.9,30.06,South,190,0.0,2.0,73,0.00,,,0.00,Wunderground v.1.15,2013-02-10 14:17:00,
2013-02-10 09:22:00,40.1,32.5,30.06,South,190,0.0,0.0,74,0.00,,,0.00,Wunderground v.1.15,2013-02-10 14:22:00,
2013-02-10 09:28:00,40.4,33.1,30.06,SSW,211,0.0,2.0,75,0.00,,,0.00,Wunderground v.1.15,2013-02-10 14:28:00,
2013-02-10 09:34:00,40.6,33.6,30.06,South,171,0.0,2.0,76,0.00,,,0.00,Wunderground v.1.15,2013-02-10 14:34:00,
2013-02-10 09:39:00,40.7,33.7,30.05,South,171,0.0,2.0,76,0.00,,,0.00,Wunderground v.1.15,2013-02-10 14:39:00,
2013-02-10 09:45:00,40.8,34.1,30.06,South,178,0.0,1.0,77,0.00,,,0.00,Wunderground v.1.15,2013-02-10 14:45:00,
2013-02-10 09:50:00,40.9,34.6,30.05,South,178,1.0,1.0,78,0.00,,,0.00,Wunderground v.1.15,2013-02-10 14:50:00,
2013-02-10 09:56:00,41.1,35.1,30.05,South,184,0.0,1.0,79,0.00,,,0.00,Wunderground v.1.15,2013-02-10 14:56:00,
2013-02-10 10:01:00,41.2,35.2,30.05,SSW,192,0.0,2.0,79,0.00,,,0.00,Wunderground v.1.15,2013-02-10 15:01:00,
2013-02-10 10:07:00,41.3,35.6,30.04,South,171,0.0,2.0,80,0.00,,,0.00,Wunderground v.1.15,2013-02-10 15:07:00,
2013-02-10 10:13:00,41.5,36.1,30.04,South,173,0.0,1.0,81,0.00,,,0.00,Wunderground v.1.15,2013-02-10 15:13:00,
2013-02-10 10:19:00,41.7,36.3,30.04,SSE,165,0.0,1.0,81,0.00,,,0.00,Wunderground v.1.15,2013-02-10 15:19:00,
2013-02-10 10:24:00,42.1,36.7,30.03,ESE,116,0.0,2.0,81,0.00,,,0.00,Wunderground v.1.15,2013-02-10 15:24:00,
2013-02-10 10:30:00,42.8,37.4,30.02,SSE,157,1.0,1.0,81,0.00,,,0.00,Wunderground v.1.15,2013-02-10 15:30:00,
2013-02-10 10:36:00,43.4,37.6,30.02,SSE,167,1.0,3.0,80,0.00,,,0.00,Wunderground v.1.15,2013-02-10 15:36:00,
2013-02-10 10:41:00,43.9,37.8,30.01,SE,134,1.0,1.0,79,0.00,,,0.00,Wunderground v.1.15,2013-02-10 15:41:00,
2013-02-10 10:46:00,44.1,37.7,30.01,South,180,1.0,3.0,78,0.00,,,0.00,Wunderground v.1.15,2013-02-10 15:46:00,
2013-02-10 10:51:00,44.3,38.2,30.00,South,180,1.0,1.0,79,0.00,,,0.00,Wunderground v.1.15,2013-02-10 15:51:00,
2013-02-10 10:57:00,44.7,38.3,29.99,ESE,120,1.0,1.0,78,0.00,,,0.00,Wunderground v.1.15,2013-02-10 15:57:00,
2013-02-10 11:03:00,45.1,38.3,29.99,South,179,1.0,2.0,77,0.00,,,0.00,Wunderground v.1.15,2013-02-10 16:03:00,
2013-02-10 11:09:00,45.5,38.4,29.98,South,188,1.0,2.0,76,0.00,,,0.00,Wunderground v.1.15,2013-02-10 16:09:00,
2013-02-10 11:14:00,46.3,38.5,29.97,South,188,0.0,1.0,74,0.00,,,0.00,Wunderground v.1.15,2013-02-10 16:14:00,
2013-02-10 11:20:00,47.4,38.1,29.97,East,92,1.0,1.0,70,0.00,,,0.00,Wunderground v.1.15,2013-02-10 16:20:00,
2013-02-10 11:26:00,48.7,38.2,29.96,South,186,2.0,5.0,67,0.00,,,0.00,Wunderground v.1.15,2013-02-10 16:26:00,
2013-02-10 11:31:00,49.5,37.4,29.96,SE,128,2.0,3.0,63,0.00,,,0.00,Wunderground v.1.15,2013-02-10 16:31:00,
2013-02-10 11:37:00,50.2,37.7,29.96,South,174,2.0,7.0,62,0.00,,,0.00,Wunderground v.1.15,2013-02-10 16:37:00,
2013-02-10 11:42:00,50.6,37.2,29.96,SSW,205,2.0,3.0,60,0.00,,,0.00,Wunderground v.1.15,2013-02-10 16:42:00,
2013-02-10 11:48:00,51.2,36.9,29.96,South,178,3.0,6.0,58,0.00,,,0.00,Wunderground v.1.15,2013-02-10 16:48:00,
2013-02-10 11:53:00,51.6,36.4,29.96,SE,144,3.0,4.0,56,0.00,,,0.00,Wunderground v.1.15,2013-02-10 16:53:00,
2013-02-10 11:59:00,51.8,36.1,29.95,SSW,202,2.0,4.0,55,0.00,,,0.00,Wunderground v.1.15,2013-02-10 16:59:00,
2013-02-10 12:04:00,51.8,35.7,29.95,South,186,2.0,4.0,54,0.00,,,0.00,Wunderground v.1.15,2013-02-10 17:04:00,
2013-02-10 12:09:00,51.8,35.7,29.94,South,172,2.0,4.0,54,0.00,,,0.00,Wunderground v.1.15,2013-02-10 17:09:00,
2013-02-10 12:14:00,51.7,35.6,29.94,SSW,205,3.0,5.0,54,0.00,,,0.00,Wunderground v.1.15,2013-02-10 17:14:00,
2013-02-10 12:20:00,51.6,35.5,29.94,South,189,3.0,3.0,54,0.00,,,0.00,Wunderground v.1.15,2013-02-10 17:20:00,
2013-02-10 12:25:00,51.5,35.4,29.94,South,184,3.0,4.0,54,0.00,,,0.00,Wunderground v.1.15,2013-02-10 17:25:00,
2013-02-10 12:31:00,51.5,35.9,29.93,SSE,148,3.0,5.0,55,0.00,,,0.00,Wunderground v.1.15,2013-02-10 17:31:00,
2013-02-10 12:36:00,51.5,35.9,29.93,SW,221,2.0,5.0,55,0.00,,,0.00,Wunderground v.1.15,2013-02-10 17:36:00,
2013-02-10 12:42:00,51.4,35.8,29.92,SE,126,2.0,2.0,55,0.00,,,0.00,Wunderground v.1.15,2013-02-10 17:42:00,
2013-02-10 12:48:00,51.4,35.3,29.91,SSW,193,2.0,3.0,54,0.00,,,0.00,Wunderground v.1.15,2013-02-10 17:48:00,
2013-02-10 12:53:00,51.4,35.3,29.90,South,191,3.0,4.0,54,0.00,,,0.00,Wunderground v.1.15,2013-02-10 17:53:00,
2013-02-10 12:59:00,51.4,35.8,29.89,SSE,167,2.0,4.0,55,0.00,,,0.00,Wunderground v.1.15,2013-02-10 17:59:00,
2013-02-10 13:05:00,51.5,35.4,29.88,South,173,2.0,6.0,54,0.00,,,0.00,Wunderground v.1.15,2013-02-10 18:05:00,
2013-02-10 13:11:00,51.6,35.5,29.87,SE,136,2.0,3.0,54,0.00,,,0.00,Wunderground v.1.15,2013-02-10 18:11:00,
2013-02-10 13:16:00,51.7,35.6,29.87,SE,146,2.0,4.0,54,0.00,,,0.00,Wunderground v.1.15,2013-02-10 18:16:00,
2013-02-10 13:22:00,51.8,35.7,29.87,SE,144,2.0,5.0,54,0.00,,,0.00,Wunderground v.1.15,2013-02-10 18:22:00,
2013-02-10 13:27:00,52.0,35.9,29.88,SSE,150,2.0,5.0,54,0.00,,,0.00,Wunderground v.1.15,2013-02-10 18:27:00,
2013-02-10 13:33:00,52.1,35.9,29.90,SSW,202,2.0,2.0,54,0.00,,,0.00,Wunderground v.1.15,2013-02-10 18:33:00,
2013-02-10 13:38:00,52.0,35.9,29.91,SW,216,1.0,3.0,54,0.00,,,0.00,Wunderground v.1.15,2013-02-10 18:38:00,
2013-02-10 13:43:00,52.0,36.3,29.90,South,191,2.0,6.0,55,0.00,,,0.00,Wunderground v.1.15,2013-02-10 18:43:00,
2013-02-10 13:49:00,52.0,36.3,29.90,South,178,2.0,6.0,55,0.00,,,0.00,Wunderground v.1.15,2013-02-10 18:49:00,
2013-02-10 13:55:00,52.0,36.3,29.89,SE,144,1.0,4.0,55,0.00,,,0.00,Wunderground v.1.15,2013-02-10 18:55:00,
2013-02-10 14:01:00,52.1,35.9,29.88,South,171,1.0,1.0,54,0.00,,,0.00,Wunderground v.1.15,2013-02-10 19:01:00,
2013-02-10 14:06:00,52.1,36.4,29.88,South,169,1.0,1.0,55,0.00,,,0.00,Wunderground v.1.15,2013-02-10 19:06:00,
2013-02-10 14:11:00,52.1,36.4,29.88,SW,219,1.0,1.0,55,0.00,,,0.00,Wunderground v.1.15,2013-02-10 19:11:00,
2013-02-10 14:17:00,52.3,36.6,29.88,South,174,1.0,3.0,55,0.00,,,0.00,Wunderground v.1.15,2013-02-10 19:17:00,
2013-02-10 14:22:00,52.3,37.1,29.89,South,188,1.0,1.0,56,0.00,,,0.00,Wunderground v.1.15,2013-02-10 19:22:00,
2013-02-10 14:28:00,52.2,37.0,29.89,SSW,196,1.0,2.0,56,0.00,,,0.00,Wunderground v.1.15,2013-02-10 19:28:00,
2013-02-10 14:33:00,52.0,37.2,29.88,South,171,2.0,4.0,57,0.00,,,0.00,Wunderground v.1.15,2013-02-10 19:33:00,
2013-02-10 14:38:00,52.0,37.2,29.88,South,178,2.0,4.0,57,0.00,,,0.00,Wunderground v.1.15,2013-02-10 19:38:00,
2013-02-10 14:44:00,51.9,38.0,29.88,SSE,160,2.0,3.0,59,0.00,,,0.00,Wunderground v.1.15,2013-02-10 19:44:00,
2013-02-10 14:49:00,51.7,37.8,29.87,South,169,1.0,3.0,59,0.00,,,0.00,Wunderground v.1.15,2013-02-10 19:49:00,
2013-02-10 14:55:00,51.3,38.3,29.87,SE,136,2.0,4.0,61,0.00,,,0.00,Wunderground v.1.15,2013-02-10 19:55:00,
2013-02-10 15:00:00,50.9,39.5,29.86,NE,55,2.0,2.0,65,0.00,,,0.00,Wunderground v.1.15,2013-02-10 20:00:00,
2013-02-10 15:05:00,50.4,39.9,29.86,SSW,195,1.0,5.0,67,0.00,,,0.01,Wunderground v.1.15,2013-02-10 20:05:00,
2013-02-10 15:11:00,49.9,40.1,29.85,SSW,193,1.0,2.0,69,0.00,,,0.01,Wunderground v.1.15,2013-02-10 20:11:00,
2013-02-10 15:17:00,49.3,40.7,29.82,SE,127,2.0,3.0,72,0.00,,,0.01,Wunderground v.1.15,2013-02-10 20:17:00,
2013-02-10 15:22:00,48.8,40.9,29.83,ESE,123,2.0,2.0,74,0.04,,,0.02,Wunderground v.1.15,2013-02-10 20:22:00,
2013-02-10 15:28:00,48.5,41.3,29.82,South,185,1.0,3.0,76,0.12,,,0.03,Wunderground v.1.15,2013-02-10 20:28:00,
2013-02-10 15:33:00,48.4,41.5,29.82,SSE,167,1.0,4.0,77,0.06,,,0.03,Wunderground v.1.15,2013-02-10 20:33:00,
2013-02-10 15:39:00,48.4,41.9,29.81,South,178,1.0,4.0,78,0.04,,,0.03,Wunderground v.1.15,2013-02-10 20:39:00,
2013-02-10 15:44:00,48.6,41.7,29.80,ESE,123,2.0,5.0,77,0.00,,,0.03,Wunderground v.1.15,2013-02-10 20:44:00,
2013-02-10 15:50:00,48.8,42.2,29.80,SSE,155,2.0,5.0,78,0.00,,,0.03,Wunderground v.1.15,2013-02-10 20:50:00,
2013-02-10 15:56:00,48.8,42.6,29.80,South,177,3.0,5.0,79,0.00,,,0.03,Wunderground v.1.15,2013-02-10 20:56:00,
2013-02-10 16:01:00,48.9,43.0,29.80,South,183,3.0,3.0,80,0.00,,,0.03,Wunderground v.1.15,2013-02-10 21:01:00,
2013-02-10 16:07:00,48.9,43.3,29.80,SSW,199,3.0,6.0,81,0.00,,,0.03,Wunderground v.1.15,2013-02-10 21:07:00,
2013-02-10 16:12:00,49.0,43.4,29.80,SSW,200,2.0,5.0,81,0.00,,,0.03,Wunderground v.1.15,2013-02-10 21:12:00,
2013-02-10 16:18:00,49.1,43.8,29.80,South,181,2.0,5.0,82,0.00,,,0.03,Wunderground v.1.15,2013-02-10 21:18:00,
2013-02-10 16:24:00,49.1,43.8,29.79,South,180,2.0,5.0,82,0.00,,,0.03,Wunderground v.1.15,2013-02-10 21:24:00,
2013-02-10 16:29:00,49.2,43.9,29.78,South,172,2.0,5.0,82,0.00,,,0.03,Wunderground v.1.15,2013-02-10 21:29:00,
2013-02-10 16:35:00,49.3,44.0,29.79,SSW,196,1.0,2.0,82,0.00,,,0.03,Wunderground v.1.15,2013-02-10 21:35:00,
2013-02-10 16:41:00,49.4,44.1,29.80,SSW,199,2.0,4.0,82,0.00,,,0.03,Wunderground v.1.15,2013-02-10 21:41:00,
2013-02-10 16:46:00,49.5,44.6,29.80,SSE,151,2.0,4.0,83,0.00,,,0.03,Wunderground v.1.15,2013-02-10 21:46:00,
2013-02-10 16:52:00,49.5,44.6,29.79,South,183,2.0,4.0,83,0.00,,,0.03,Wunderground v.1.15,2013-02-10 21:52:00,
2013-02-10 16:58:00,49.6,44.6,29.77,SE,140,2.0,4.0,83,0.00,,,0.03,Wunderground v.1.15,2013-02-10 21:58:00,
2013-02-10 17:04:00,49.8,44.8,29.77,ESE,115,2.0,5.0,83,0.00,,,0.03,Wunderground v.1.15,2013-02-10 22:04:00,
2013-02-10 17:10:00,49.9,44.9,29.77,ESE,111,3.0,3.0,83,0.00,,,0.03,Wunderground v.1.15,2013-02-10 22:10:00,
2013-02-10 17:16:00,49.9,44.9,29.77,SE,146,3.0,6.0,83,0.00,,,0.03,Wunderground v.1.15,2013-02-10 22:16:00,
2013-02-10 17:22:00,49.9,44.9,29.77,South,174,4.0,4.0,83,0.00,,,0.03,Wunderground v.1.15,2013-02-10 22:22:00,
2013-02-10 17:27:00,49.9,44.9,29.77,SSE,147,4.0,5.0,83,0.00,,,0.03,Wunderground v.1.15,2013-02-10 22:27:00,
2013-02-10 17:33:00,50.0,45.4,29.77,SE,142,3.0,6.0,84,0.00,,,0.03,Wunderground v.1.15,2013-02-10 22:33:00,
2013-02-10 17:39:00,50.1,45.1,29.77,SSE,147,3.0,6.0,83,0.00,,,0.03,Wunderground v.1.15,2013-02-10 22:39:00,
2013-02-10 17:45:00,50.2,45.2,29.77,East,97,3.0,5.0,83,0.00,,,0.03,Wunderground v.1.15,2013-02-10 22:45:00,
2013-02-10 17:50:00,50.3,45.3,29.76,SSE,160,3.0,3.0,83,0.00,,,0.03,Wunderground v.1.15,2013-02-10 22:50:00,
2013-02-10 17:56:00,50.4,45.4,29.77,SE,128,3.0,5.0,83,0.00,,,0.03,Wunderground v.1.15,2013-02-10 22:56:00,
2013-02-10 18:02:00,50.6,45.6,29.76,South,188,3.0,6.0,83,0.00,,,0.03,Wunderground v.1.15,2013-02-10 23:02:00,
2013-02-10 18:08:00,50.7,45.7,29.76,South,185,4.0,8.0,83,0.00,,,0.03,Wunderground v.1.15,2013-02-10 23:08:00,
2013-02-10 18:13:00,50.8,45.8,29.76,South,188,4.0,6.0,83,0.00,,,0.03,Wunderground v.1.15,2013-02-10 23:13:00,
2013-02-10 18:19:00,50.7,45.7,29.76,ESE,110,3.0,8.0,83,0.00,,,0.03,Wunderground v.1.15,2013-02-10 23:19:00,
2013-02-10 18:25:00,50.7,46.0,29.76,SW,221,3.0,7.0,84,0.00,,,0.03,Wunderground v.1.15,2013-02-10 23:25:00,
2013-02-10 18:30:00,50.6,45.9,29.75,SSE,163,3.0,3.0,84,0.00,,,0.03,Wunderground v.1.15,2013-02-10 23:30:00,
2013-02-10 18:36:00,50.7,46.0,29.75,South,175,3.0,8.0,84,0.00,,,0.03,Wunderground v.1.15,2013-02-10 23:36:00,
2013-02-10 18:42:00,50.7,46.0,29.75,South,189,3.0,3.0,84,0.00,,,0.03,Wunderground v.1.15,2013-02-10 23:42:00,
2013-02-10 18:48:00,50.7,46.4,29.76,South,178,3.0,5.0,85,0.00,,,0.03,Wunderground v.1.15,2013-02-10 23:48:00,
2013-02-10 18:54:00,50.7,46.4,29.76,South,189,2.0,5.0,85,0.00,,,0.03,Wunderground v.1.15,2013-02-10 23:54:00,
2013-02-10 18:59:00,50.8,46.5,29.75,SSE,150,3.0,7.0,85,0.00,,,0.03,Wunderground v.1.15,2013-02-10 23:59:00,
2013-02-10 19:05:00,50.8,46.5,29.75,SE,146,3.0,5.0,85,0.00,,,0.03,Wunderground v.1.15,2013-02-11 00:05:00,
2013-02-10 19:11:00,50.8,46.5,29.75,South,184,2.0,3.0,85,0.00,,,0.03,Wunderground v.1.15,2013-02-11 00:11:00,
2013-02-10 19:17:00,50.8,46.5,29.75,SSE,163,3.0,8.0,85,0.00,,,0.03,Wunderground v.1.15,2013-02-11 00:17:00,
2013-02-10 19:23:00,50.9,46.6,29.75,SSW,194,4.0,6.0,85,0.00,,,0.03,Wunderground v.1.15,2013-02-11 00:23:00,
2013-02-10 19:28:00,50.9,46.6,29.75,NW,313,3.0,6.0,85,0.00,,,0.03,Wunderground v.1.15,2013-02-11 00:28:00,
2013-02-10 19:34:00,51.0,46.6,29.75,SSE,154,3.0,5.0,85,0.00,,,0.03,Wunderground v.1.15,2013-02-11 00:34:00,
2013-02-10 19:39:00,51.0,46.6,29.75,SSW,202,2.0,5.0,85,0.00,,,0.03,Wunderground v.1.15,2013-02-11 00:39:00,
2013-02-10 19:45:00,51.0,46.6,29.76,South,176,2.0,6.0,85,0.00,,,0.03,Wunderground v.1.15,2013-02-11 00:45:00,
2013-02-10 19:51:00,51.1,46.7,29.76,SSE,166,2.0,3.0,85,0.00,,,0.03,Wunderground v.1.15,2013-02-11 00:51:00,
2013-02-10 19:56:00,51.2,46.8,29.76,South,171,2.0,3.0,85,0.00,,,0.03,Wunderground v.1.15,2013-02-11 00:56:00,
2013-02-10 20:02:00,51.2,46.8,29.76,South,189,2.0,3.0,85,0.00,,,0.03,Wunderground v.1.15,2013-02-11 01:02:00,
2013-02-10 20:07:00,51.2,46.8,29.75,SSW,194,2.0,5.0,85,0.00,,,0.03,Wunderground v.1.15,2013-02-11 01:07:00,
2013-02-10 20:13:00,51.2,46.8,29.75,South,173,3.0,5.0,85,0.00,,,0.03,Wunderground v.1.15,2013-02-11 01:13:00,
2013-02-10 20:19:00,51.3,46.9,29.75,SSW,195,3.0,6.0,85,0.00,,,0.03,Wunderground v.1.15,2013-02-11 01:19:00,
2013-02-10 20:25:00,51.3,46.9,29.75,ENE,75,3.0,6.0,85,0.00,,,0.03,Wunderground v.1.15,2013-02-11 01:25:00,
2013-02-10 20:30:00,51.4,47.0,29.75,SE,144,2.0,2.0,85,0.00,,,0.03,Wunderground v.1.15,2013-02-11 01:30:00,
2013-02-10 20:36:00,51.5,47.1,29.75,South,172,2.0,7.0,85,0.00,,,0.03,Wunderground v.1.15,2013-02-11 01:36:00,
2013-02-10 20:41:00,51.6,47.2,29.75,South,178,2.0,3.0,85,0.00,,,0.03,Wunderground v.1.15,2013-02-11 01:41:00,
2013-02-10 20:47:00,51.6,47.2,29.74,SSE,158,3.0,3.0,85,0.00,,,0.03,Wunderground v.1.15,2013-02-11 01:47:00,
2013-02-10 20:53:00,51.7,47.3,29.74,SW,218,3.0,3.0,85,0.00,,,0.03,Wunderground v.1.15,2013-02-11 01:53:00,
2013-02-10 20:58:00,51.8,47.4,29.75,SSW,203,3.0,6.0,85,0.00,,,0.03,Wunderground v.1.15,2013-02-11 01:58:00,
2013-02-10 21:04:00,51.8,47.4,29.75,SSE,165,4.0,5.0,85,0.00,,,0.03,Wunderground v.1.15,2013-02-11 02:04:00,
2013-02-10 21:10:00,52.0,47.6,29.75,South,177,4.0,4.0,85,0.00,,,0.03,Wunderground v.1.15,2013-02-11 02:10:00,
2013-02-10 21:15:00,52.0,47.6,29.75,South,184,3.0,5.0,85,0.00,,,0.03,Wunderground v.1.15,2013-02-11 02:15:00,
2013-02-10 21:21:00,52.0,47.6,29.75,SSW,202,3.0,3.0,85,0.00,,,0.03,Wunderground v.1.15,2013-02-11 02:21:00,
2013-02-10 21:27:00,52.0,47.6,29.75,North,5,3.0,6.0,85,0.00,,,0.03,Wunderground v.1.15,2013-02-11 02:27:00,
2013-02-10 21:32:00,52.0,47.9,29.75,South,173,3.0,3.0,86,0.00,,,0.03,Wunderground v.1.15,2013-02-11 02:32:00,
2013-02-10 21:38:00,51.9,47.8,29.75,South,188,3.0,4.0,86,0.00,,,0.03,Wunderground v.1.15,2013-02-11 02:38:00,
2013-02-10 21:44:00,51.9,47.8,29.75,ENE,70,3.0,4.0,86,0.00,,,0.03,Wunderground v.1.15,2013-02-11 02:44:00,
2013-02-10 21:49:00,51.8,47.7,29.75,South,176,3.0,4.0,86,0.00,,,0.03,Wunderground v.1.15,2013-02-11 02:49:00,
2013-02-10 21:55:00,51.7,48.0,29.75,South,173,2.0,3.0,87,0.00,,,0.03,Wunderground v.1.15,2013-02-11 02:55:00,
2013-02-10 22:00:00,51.5,48.1,29.74,South,189,1.0,1.0,88,0.00,,,0.03,Wunderground v.1.15,2013-02-11 03:00:00,
2013-02-10 22:05:00,51.2,48.1,29.74,South,185,2.0,3.0,89,0.00,,,0.03,Wunderground v.1.15,2013-02-11 03:05:00,
2013-02-10 22:11:00,50.9,48.1,29.74,SSW,194,2.0,2.0,90,0.00,,,0.03,Wunderground v.1.15,2013-02-11 03:11:00,
2013-02-10 22:17:00,50.6,48.4,29.74,SE,141,2.0,6.0,92,0.00,,,0.03,Wunderground v.1.15,2013-02-11 03:17:00,
2013-02-10 22:23:00,50.4,48.2,29.74,SSW,192,2.0,4.0,92,0.00,,,0.03,Wunderground v.1.15,2013-02-11 03:23:00,
2013-02-10 22:29:00,50.3,48.4,29.74,South,171,2.0,4.0,93,0.00,,,0.03,Wunderground v.1.15,2013-02-11 03:29:00,
2013-02-10 22:34:00,50.1,48.2,29.74,South,190,1.0,3.0,93,0.00,,,0.03,Wunderground v.1.15,2013-02-11 03:34:00,
2013-02-10 22:40:00,50.0,48.3,29.74,South,179,1.0,1.0,94,0.00,,,0.03,Wunderground v.1.15,2013-02-11 03:40:00,
2013-02-10 22:45:00,50.0,48.3,29.74,South,175,1.0,5.0,94,0.00,,,0.03,Wunderground v.1.15,2013-02-11 03:45:00,
2013-02-10 22:51:00,49.9,48.5,29.75,South,169,1.0,1.0,95,0.00,,,0.03,Wunderground v.1.15,2013-02-11 03:51:00,
2013-02-10 22:56:00,50.0,48.6,29.75,South,169,1.0,2.0,95,0.00,,,0.03,Wunderground v.1.15,2013-02-11 03:56:00,
2013-02-10 23:01:00,50.0,48.6,29.75,South,184,1.0,3.0,95,0.00,,,0.03,Wunderground v.1.15,2013-02-11 04:01:00,
2013-02-10 23:07:00,50.1,48.7,29.75,SSE,159,1.0,4.0,95,0.00,,,0.03,Wunderground v.1.15,2013-02-11 04:07:00,
2013-02-10 23:13:00,50.1,48.4,29.74,SSE,159,2.0,2.0,94,0.00,,,0.03,Wunderground v.1.15,2013-02-11 04:13:00,
2013-02-10 23:18:00,50.2,48.5,29.75,South,171,1.0,2.0,94,0.00,,,0.03,Wunderground v.1.15,2013-02-11 04:18:00,
2013-02-10 23:24:00,50.2,48.5,29.75,South,179,1.0,3.0,94,0.00,,,0.03,Wunderground v.1.15,2013-02-11 04:24:00,
2013-02-10 23:29:00,50.3,48.6,29.74,SW,229,1.0,4.0,94,0.00,,,0.03,Wunderground v.1.15,2013-02-11 04:29:00,
2013-02-10 23:35:00,50.3,48.6,29.74,South,172,1.0,2.0,94,0.00,,,0.03,Wunderground v.1.15,2013-02-11 04:35:00,
2013-02-10 23:41:00,50.4,48.7,29.74,South,171,1.0,1.0,94,0.00,,,0.03,Wunderground v.1.15,2013-02-11 04:41:00,
2013-02-10 23:47:00,50.5,48.8,29.73,SSW,194,2.0,5.0,94,0.00,,,0.03,Wunderground v.1.15,2013-02-11 04:47:00,
2013-02-10 23:53:00,50.6,48.9,29.73,South,184,2.0,5.0,94,0.00,,,0.03,Wunderground v.1.15,2013-02-11 04:53:00,
2013-02-10 23:58:00,50.7,49.0,29.73,South,179,1.0,6.0,94,0.00,,,0.03,Wunderground v.1.15,2013-02-11 04:58:00,